Time;durP1;ratioP1;P1;durP2;ratioP2;P2;SDS_P1;SDS_P2;PMS_P1;PMS_P2;Temp;Humidity;BMP_temperature;BMP_pressure;BME280_temperature;BME280_humidity;BME280_pressure;Samples;Min_cycle;Max_cycle;Signal;HPM_P1;HPM_P2
2022/12/11 00:01:23;;;;;;;12.10;8.20;;;15.10;99.90;;;;;;4964860;28;20042;-82
2022/12/11 00:03:49;;;;;;;10.98;7.57;;;15.10;99.90;;;;;;4948909;28;20465;-82
2022/12/11 00:06:18;;;;;;;12.13;8.00;;;15.10;99.90;;;;;;4948612;28;20034;-83
2022/12/11 00:08:45;;;;;;;11.85;8.23;;;15.10;99.90;;;;;;4997802;28;20046;-82
2022/12/11 00:11:19;;;;;;;13.45;8.38;;;15.10;99.90;;;;;;5016711;28;20025;-82
2022/12/11 00:13:46;;;;;;;12.57;8.02;;;15.10;99.90;;;;;;4984230;28;20044;-85
2022/12/11 00:16:12;;;;;;;13.68;7.82;;;15.00;99.90;;;;;;5017780;28;20038;-86
2022/12/11 00:18:39;;;;;;;11.80;7.68;;;15.00;99.90;;;;;;5001320;28;20380;-84
2022/12/11 00:21:13;;;;;;;12.02;7.68;;;15.00;99.90;;;;;;5001472;28;20042;-85
2022/12/11 00:23:41;;;;;;;12.25;7.75;;;15.00;99.90;;;;;;5000438;28;20117;-84
2022/12/11 00:26:12;;;;;;;13.13;8.45;;;15.00;99.90;;;;;;5017215;28;20029;-83
2022/12/11 00:28:39;;;;;;;13.95;8.43;;;15.00;99.90;;;;;;5032805;28;20029;-83
2022/12/11 00:31:08;;;;;;;11.38;8.00;;;15.00;99.90;;;;;;5017307;28;20038;-83
2022/12/11 00:33:34;;;;;;;14.00;8.50;;;15.00;99.90;;;;;;4965311;28;20743;-83
2022/12/11 00:36:00;;;;;;;11.40;8.00;;;15.00;99.90;;;;;;4981437;28;20076;-83
2022/12/11 00:38:26;;;;;;;12.75;7.90;;;15.00;99.90;;;;;;5013255;28;20118;-83
2022/12/11 00:40:52;;;;;;;13.57;8.40;;;15.00;99.90;;;;;;4997778;28;20112;-82
2022/12/11 00:43:18;;;;;;;13.18;8.18;;;15.00;99.90;;;;;;4995809;28;20429;-82
2022/12/11 00:45:45;;;;;;;12.10;7.85;;;14.90;99.90;;;;;;5013897;28;20042;-83
2022/12/11 00:48:12;;;;;;;12.45;8.02;;;14.90;99.90;;;;;;5006729;28;20453;-82
2022/12/11 00:50:39;;;;;;;13.48;8.63;;;14.90;99.90;;;;;;4984664;28;20030;-85
2022/12/11 00:53:06;;;;;;;12.68;8.20;;;14.90;99.90;;;;;;5000472;28;20033;-84
2022/12/11 00:55:37;;;;;;;13.85;8.65;;;14.90;99.90;;;;;;5016649;28;20065;-84
2022/12/11 00:58:03;;;;;;;13.15;8.07;;;14.90;99.90;;;;;;5032444;28;20036;-85
2022/12/11 01:00:29;;;;;;;12.50;7.97;;;14.90;99.90;;;;;;5000358;28;20037;-84
2022/12/11 01:02:55;;;;;;;13.27;8.05;;;14.90;99.90;;;;;;5033120;28;20030;-84
2022/12/11 01:05:21;;;;;;;13.60;8.68;;;14.90;99.90;;;;;;4984550;28;20038;-85
2022/12/11 01:07:47;;;;;;;14.90;8.30;;;14.90;99.90;;;;;;5027195;28;20099;-85
2022/12/11 01:10:25;;;;;;;11.43;8.10;;;14.90;99.90;;;;;;5020194;28;20041;-85
2022/12/11 01:12:54;;;;;;;13.07;8.00;;;14.90;99.90;;;;;;5016925;28;20140;-85
2022/12/11 01:15:21;;;;;;;12.40;7.60;;;14.90;99.90;;;;;;5021167;28;20037;-84
2022/12/11 01:17:48;;;;;;;12.68;8.05;;;14.90;99.90;;;;;;5019671;28;20033;-84
2022/12/11 01:20:15;;;;;;;14.27;8.45;;;14.90;99.90;;;;;;5036344;28;20029;-84
2022/12/11 01:22:40;;;;;;;14.48;7.97;;;14.90;99.90;;;;;;5019784;28;20124;-84
2022/12/11 01:25:10;;;;;;;12.43;8.15;;;14.90;99.90;;;;;;5003979;28;20124;-84
2022/12/11 01:27:37;;;;;;;12.07;7.47;;;14.90;99.90;;;;;;5018517;28;20421;-84
2022/12/11 01:30:06;;;;;;;12.10;7.85;;;14.90;99.90;;;;;;5019106;28;20025;-84
2022/12/11 01:32:34;;;;;;;12.35;7.68;;;14.90;99.90;;;;;;5010555;28;20026;-84
2022/12/11 01:35:07;;;;;;;13.10;7.88;;;14.90;99.90;;;;;;5016122;28;20068;-85
2022/12/11 01:37:36;;;;;;;12.40;8.10;;;14.90;99.90;;;;;;5017850;28;20077;-85
2022/12/11 01:40:12;;;;;;;14.05;8.65;;;14.80;99.90;;;;;;5016528;28;20118;-85
2022/12/11 01:42:38;;;;;;;12.85;8.23;;;14.80;99.90;;;;;;4999070;28;20084;-85
2022/12/11 01:45:28;;;;;;;13.10;8.10;;;14.80;99.90;;;;;;5048549;28;20046;-85
2022/12/11 01:48:04;;;;;;;13.40;8.10;;;14.80;99.90;;;;;;5032054;28;20056;-84
2022/12/11 01:50:34;;;;;;;12.98;8.10;;;14.80;99.90;;;;;;5032293;28;20034;-85
2022/12/11 01:53:01;;;;;;;12.10;7.97;;;14.80;99.90;;;;;;5032185;28;20033;-85
2022/12/11 01:55:27;;;;;;;14.15;8.13;;;14.80;99.90;;;;;;5015051;28;20053;-85
2022/12/11 01:57:53;;;;;;;11.23;7.35;;;14.80;99.90;;;;;;4998885;28;20034;-85
2022/12/11 02:00:20;;;;;;;11.90;7.97;;;14.80;99.90;;;;;;5016047;28;20121;-85
2022/12/11 02:02:46;;;;;;;12.48;7.75;;;14.80;99.90;;;;;;5015458;28;20042;-85
2022/12/11 02:05:13;;;;;;;12.85;8.25;;;14.70;99.90;;;;;;5016098;28;20034;-85
2022/12/11 02:07:46;;;;;;;13.65;8.30;;;14.70;99.90;;;;;;5015501;28;20070;-85
2022/12/11 02:10:13;;;;;;;11.88;7.50;;;14.70;99.90;;;;;;4999593;28;20030;-85
2022/12/11 02:13:12;;;;;;;12.68;7.75;;;14.70;99.90;;;;;;5015163;28;20038;-85
2022/12/11 02:15:44;;;;;;;13.30;7.50;;;14.70;99.90;;;;;;4980751;28;20034;-84
2022/12/11 02:18:48;;;;;;;12.65;8.02;;;14.70;99.90;;;;;;4998910;28;20029;-83
2022/12/11 02:21:26;;;;;;;13.10;7.93;;;14.70;99.90;;;;;;4997849;28;20337;-83
2022/12/11 02:24:05;;;;;;;14.30;7.93;;;14.70;99.90;;;;;;5012775;28;20037;-83
2022/12/11 02:26:50;;;;;;;12.88;7.85;;;14.70;99.90;;;;;;5015428;28;20037;-84
2022/12/11 02:29:21;;;;;;;12.35;7.55;;;14.70;99.90;;;;;;5015165;28;20037;-83
2022/12/11 02:31:56;;;;;;;13.32;8.07;;;14.70;99.90;;;;;;5017567;28;20042;-83
2022/12/11 02:34:29;;;;;;;14.07;8.00;;;14.70;99.90;;;;;;5065274;28;20034;-83
2022/12/11 02:37:00;;;;;;;12.68;7.45;;;14.60;99.90;;;;;;5048461;28;20041;-82
2022/12/11 02:39:28;;;;;;;14.13;8.07;;;14.60;99.90;;;;;;5031456;28;20317;-83
2022/12/11 02:41:55;;;;;;;13.00;7.78;;;14.60;99.90;;;;;;5048083;28;20030;-83
2022/12/11 02:44:29;;;;;;;12.75;7.90;;;14.60;99.90;;;;;;5014604;28;20050;-86
2022/12/11 02:46:57;;;;;;;10.75;7.05;;;14.60;99.90;;;;;;5048375;28;20034;-86
2022/12/11 02:49:25;;;;;;;13.73;8.07;;;14.60;99.90;;;;;;5047986;28;20353;-86
2022/12/11 02:51:52;;;;;;;11.77;7.93;;;14.60;99.90;;;;;;5064572;28;20136;-87
2022/12/11 02:54:26;;;;;;;13.05;7.47;;;14.60;99.90;;;;;;5014878;28;20338;-86
2022/12/11 02:57:02;;;;;;;11.85;7.63;;;14.60;99.90;;;;;;5047464;28;20135;-86
2022/12/11 02:59:43;;;;;;;14.70;8.02;;;14.60;99.90;;;;;;5047494;28;20441;-85
2022/12/11 03:02:11;;;;;;;13.20;7.80;;;14.60;99.90;;;;;;5064368;28;20030;-85
2022/12/11 03:04:37;;;;;;;12.80;8.02;;;14.50;99.90;;;;;;5014865;28;20034;-84
2022/12/11 03:07:12;;;;;;;11.70;7.65;;;14.50;99.90;;;;;;5049232;28;20026;-84
2022/12/11 03:09:40;;;;;;;13.57;8.20;;;14.50;99.90;;;;;;5051301;28;20112;-84
2022/12/11 03:12:10;;;;;;;13.82;8.32;;;14.50;99.90;;;;;;5002384;28;20033;-83
2022/12/11 03:14:39;;;;;;;12.95;7.88;;;14.50;99.90;;;;;;5050860;28;20088;-83
2022/12/11 03:17:18;;;;;;;13.45;7.80;;;14.50;99.90;;;;;;5068503;28;20325;-83
2022/12/11 03:20:05;;;;;;;11.55;7.35;;;14.50;99.90;;;;;;5034960;28;20060;-84
2022/12/11 03:22:47;;;;;;;11.70;7.10;;;14.50;99.90;;;;;;5051704;28;20469;-84
2022/12/11 03:25:18;;;;;;;12.82;7.95;;;14.50;99.90;;;;;;5002543;28;20429;-84
2022/12/11 03:27:53;;;;;;;12.65;7.78;;;14.50;99.90;;;;;;5067597;28;20044;-85
2022/12/11 03:30:22;;;;;;;13.63;8.27;;;14.50;99.90;;;;;;5034834;28;20076;-84
2022/12/11 03:32:50;;;;;;;13.88;7.97;;;14.50;99.90;;;;;;5051326;28;20041;-84
2022/12/11 03:35:37;;;;;;;11.05;7.47;;;14.50;99.90;;;;;;5035511;28;20392;-83
2022/12/11 03:38:17;;;;;;;12.98;8.45;;;14.50;99.90;;;;;;5034774;28;20099;-84
2022/12/11 03:40:47;;;;;;;13.82;7.93;;;14.50;99.90;;;;;;5051492;28;20034;-84
2022/12/11 03:43:15;;;;;;;11.63;7.55;;;14.40;99.90;;;;;;5050650;28;20088;-84
2022/12/11 03:45:44;;;;;;;12.63;8.00;;;14.40;99.90;;;;;;5018313;28;20030;-83
2022/12/11 03:48:11;;;;;;;14.98;8.82;;;14.40;99.90;;;;;;5051089;28;20050;-83
2022/12/11 03:50:39;;;;;;;12.85;8.25;;;14.40;99.90;;;;;;5034567;28;20038;-84
2022/12/11 03:53:07;;;;;;;12.90;7.40;;;14.40;99.90;;;;;;5017697;28;20053;-83
2022/12/11 03:55:36;;;;;;;14.57;8.02;;;14.40;99.90;;;;;;5051448;28;20034;-83
2022/12/11 03:58:03;;;;;;;14.80;8.98;;;14.40;99.90;;;;;;5034097;28;20065;-84
2022/12/11 04:00:30;;;;;;;12.98;7.88;;;14.40;99.90;;;;;;5018539;28;20034;-84
2022/12/11 04:03:11;;;;;;;16.40;8.80;;;14.40;99.90;;;;;;5033999;28;20034;-84
2022/12/11 04:06:00;;;;;;;13.90;7.97;;;14.40;99.90;;;;;;5028735;28;20030;-81
2022/12/11 04:08:26;;;;;;;14.75;9.15;;;14.30;99.90;;;;;;5019222;28;20068;-82
2022/12/11 04:11:33;;;;;;;13.13;7.93;;;14.40;99.90;;;;;;5036987;28;20069;-82
2022/12/11 04:13:40;;;;;;;13.38;8.30;;;14.40;99.90;;;;;;5020280;28;20037;-82
2022/12/11 04:16:06;;;;;;;13.65;8.35;;;14.30;99.90;;;;;;5037629;28;20087;-82
2022/12/11 04:24:14;;;;;;;15.63;8.38;;;14.30;99.90;;;;;;5037124;28;20026;-84
2022/12/11 04:26:56;;;;;;;13.00;8.15;;;14.30;99.90;;;;;;5037414;28;20033;-82
2022/12/11 04:30:01;;;;;;;12.90;8.20;;;14.30;99.90;;;;;;5025953;28;20072;-82
2022/12/11 04:33:47;;;;;;;14.85;8.88;;;14.30;99.90;;;;;;5037181;28;20076;-82
2022/12/11 04:37:05;;;;;;;14.68;8.88;;;14.30;99.90;;;;;;5050843;28;20034;-81
2022/12/11 04:40:20;;;;;;;14.57;8.23;;;14.30;99.90;;;;;;5035890;28;20033;-82
2022/12/11 04:43:43;;;;;;;14.73;8.85;;;14.30;99.90;;;;;;5052736;28;20441;-82
2022/12/11 04:46:54;;;;;;;13.40;8.88;;;14.20;99.90;;;;;;5016545;28;20042;-85
2022/12/11 04:49:46;;;;;;;14.05;8.25;;;14.20;99.90;;;;;;5052247;28;20075;-83
2022/12/11 04:52:36;;;;;;;15.75;9.38;;;14.20;99.90;;;;;;5020551;28;20045;-84
2022/12/11 04:55:33;;;;;;;14.20;9.07;;;14.20;99.90;;;;;;5039425;28;20033;-84
2022/12/11 04:58:29;;;;;;;14.73;8.70;;;14.20;99.90;;;;;;5026841;28;20041;-83
2022/12/11 05:00:56;;;;;;;14.20;8.15;;;14.20;99.90;;;;;;5039893;28;20033;-83
2022/12/11 05:03:23;;;;;;;14.55;8.45;;;14.20;99.90;;;;;;5006713;28;20037;-83
2022/12/11 05:05:52;;;;;;;14.07;8.77;;;14.20;99.90;;;;;;5006654;28;20037;-84
2022/12/11 05:08:20;;;;;;;17.75;9.50;;;14.20;99.90;;;;;;5039067;28;20056;-81
2022/12/11 05:10:58;;;;;;;15.23;8.82;;;14.20;99.90;;;;;;5039405;28;20025;-81
2022/12/11 05:13:25;;;;;;;16.02;9.25;;;14.20;99.90;;;;;;5039148;28;20048;-81
2022/12/11 05:16:32;;;;;;;14.95;8.77;;;14.20;99.90;;;;;;5005358;28;20443;-82
2022/12/11 05:23:53;;;;;;;15.68;9.15;;;14.20;99.90;;;;;;5044454;28;20041;-81
2022/12/11 05:27:06;;;;;;;16.17;9.20;;;14.10;99.90;;;;;;5035089;28;20040;-82
2022/12/11 05:33:44;;;;;;;17.33;8.95;;;14.10;99.90;;;;;;5032046;28;20040;-82
2022/12/11 05:36:27;;;;;;;16.73;9.93;;;14.10;99.90;;;;;;5019328;28;20055;-82
2022/12/11 05:39:05;;;;;;;14.75;9.05;;;14.10;99.90;;;;;;5050813;28;20026;-82
2022/12/11 05:41:32;;;;;;;19.52;9.48;;;14.10;99.90;;;;;;5002872;28;20065;-82
2022/12/11 05:44:04;;;;;;;16.90;10.38;;;14.10;99.90;;;;;;5034469;28;20041;-83
2022/12/11 05:46:33;;;;;;;17.05;9.68;;;14.10;99.90;;;;;;5001818;28;20037;-82
2022/12/11 05:49:09;;;;;;;15.43;8.85;;;14.10;99.90;;;;;;5034123;28;20387;-82
2022/12/11 05:51:38;;;;;;;15.40;9.10;;;14.10;99.90;;;;;;5018556;28;20419;-82
2022/12/11 05:54:04;;;;;;;17.33;9.73;;;14.10;99.90;;;;;;5048717;28;20157;-84
2022/12/11 05:56:32;;;;;;;17.05;9.77;;;14.10;99.90;;;;;;5038978;28;20044;-83
2022/12/11 05:58:59;;;;;;;14.98;8.90;;;14.10;99.90;;;;;;5037833;28;20111;-82
2022/12/11 06:01:35;;;;;;;14.38;9.10;;;14.10;99.90;;;;;;5055768;28;20068;-82
2022/12/11 06:04:02;;;;;;;14.90;8.98;;;14.10;99.90;;;;;;5022453;28;20033;-83
2022/12/11 06:06:28;;;;;;;15.32;9.38;;;14.10;99.90;;;;;;5055459;28;20420;-83
2022/12/11 06:08:56;;;;;;;17.27;10.20;;;14.10;99.90;;;;;;5037902;28;20032;-84
2022/12/11 06:11:23;;;;;;;15.43;9.38;;;14.10;99.90;;;;;;5005674;28;20028;-83
2022/12/11 06:13:50;;;;;;;15.98;9.73;;;14.10;99.90;;;;;;5037601;28;20044;-82
2022/12/11 06:16:24;;;;;;;20.85;8.85;;;14.10;99.90;;;;;;5022025;28;20025;-83
2022/12/11 06:18:51;;;;;;;18.98;9.57;;;14.10;99.90;;;;;;5038117;28;20090;-84
2022/12/11 06:21:20;;;;;;;14.57;9.23;;;14.10;99.90;;;;;;5054839;28;20054;-80
2022/12/11 06:23:48;;;;;;;13.82;8.23;;;14.10;99.90;;;;;;5054885;28;20032;-80
2022/12/11 06:26:15;;;;;;;15.32;8.50;;;14.10;99.90;;;;;;5055622;28;20032;-79
2022/12/11 06:28:41;;;;;;;14.73;8.85;;;14.10;99.90;;;;;;5054570;28;20375;-79
2022/12/11 06:31:07;;;;;;;17.23;9.35;;;14.10;99.90;;;;;;5054750;28;20037;-79
2022/12/11 06:33:33;;;;;;;14.98;8.90;;;14.10;99.90;;;;;;5050957;28;20040;-78
2022/12/11 06:36:08;;;;;;;15.00;9.40;;;14.10;99.90;;;;;;5035353;28;20041;-79
2022/12/11 06:38:34;;;;;;;15.27;9.25;;;14.10;99.90;;;;;;5035203;28;20107;-78
2022/12/11 06:41:03;;;;;;;15.30;9.10;;;14.00;99.90;;;;;;5017745;28;20025;-78
2022/12/11 06:43:30;;;;;;;15.82;9.05;;;14.00;99.90;;;;;;5034592;28;20028;-78
2022/12/11 06:45:58;;;;;;;14.25;8.85;;;14.00;99.90;;;;;;5050626;28;20034;-78
2022/12/11 06:48:24;;;;;;;16.05;9.07;;;14.00;99.90;;;;;;5050378;28;20091;-79
2022/12/11 06:50:50;;;;;;;16.65;9.63;;;14.00;99.90;;;;;;5035167;28;20039;-77
2022/12/11 06:53:16;;;;;;;16.77;9.65;;;14.00;99.90;;;;;;5034571;28;20049;-77
2022/12/11 06:55:42;;;;;;;14.45;8.90;;;14.00;99.90;;;;;;5035156;28;20048;-77
2022/12/11 06:58:09;;;;;;;16.92;10.00;;;14.00;99.90;;;;;;5049506;28;20029;-77
2022/12/11 07:00:36;;;;;;;18.00;9.68;;;14.00;99.90;;;;;;5035187;28;20056;-77
2022/12/11 07:03:02;;;;;;;15.75;9.40;;;14.00;99.90;;;;;;5034705;28;20029;-76
2022/12/11 07:05:30;;;;;;;15.13;9.38;;;14.00;99.90;;;;;;5035058;28;20449;-76
2022/12/11 07:07:56;;;;;;;14.90;9.02;;;14.00;99.90;;;;;;5034250;28;20098;-76
2022/12/11 07:10:22;;;;;;;17.63;10.45;;;14.00;99.90;;;;;;5035067;28;20140;-77
2022/12/11 07:12:51;;;;;;;16.35;8.98;;;14.00;99.90;;;;;;5033823;28;20064;-76
2022/12/11 07:15:17;;;;;;;16.15;9.60;;;13.90;99.90;;;;;;5034940;28;20041;-76
2022/12/11 07:17:43;;;;;;;16.02;9.25;;;13.90;99.90;;;;;;5034833;28;20030;-76
2022/12/11 07:20:09;;;;;;;18.23;10.25;;;13.90;99.90;;;;;;5034733;28;20059;-76
2022/12/11 07:22:35;;;;;;;16.92;10.07;;;13.90;99.90;;;;;;5017617;28;20025;-77
2022/12/11 07:25:01;;;;;;;16.42;9.57;;;13.90;99.90;;;;;;5033010;28;20320;-76
2022/12/11 07:27:28;;;;;;;18.15;9.35;;;13.90;99.90;;;;;;5053459;28;20379;-77
2022/12/11 07:29:54;;;;;;;16.63;9.55;;;13.90;99.90;;;;;;5046311;28;20041;-77
2022/12/11 07:32:21;;;;;;;16.88;9.30;;;13.90;99.90;;;;;;5040949;28;20036;-76
2022/12/11 07:34:50;;;;;;;17.30;9.52;;;13.90;99.90;;;;;;5050143;28;20079;-76
2022/12/11 07:37:16;;;;;;;15.50;9.25;;;13.80;99.90;;;;;;5054342;28;20114;-78
2022/12/11 07:39:42;;;;;;;15.98;9.02;;;13.80;99.90;;;;;;5054212;28;20040;-76
2022/12/11 07:42:08;;;;;;;15.98;9.02;;;13.80;99.90;;;;;;5054178;28;20040;-76
2022/12/11 07:44:34;;;;;;;14.50;9.23;;;13.80;99.90;;;;;;5047873;28;20088;-76
2022/12/11 07:47:00;;;;;;;16.67;9.00;;;13.80;99.90;;;;;;5051129;28;20383;-75
2022/12/11 07:49:26;;;;;;;13.40;8.65;;;13.80;99.90;;;;;;5041565;28;20040;-75
2022/12/11 07:51:52;;;;;;;15.02;8.50;;;13.80;99.90;;;;;;5063031;28;20037;-77
2022/12/11 07:54:19;;;;;;;14.35;8.43;;;13.80;99.90;;;;;;5057246;28;20045;-78
2022/12/11 07:56:46;;;;;;;14.23;8.35;;;13.80;99.90;;;;;;5048576;28;20033;-77
2022/12/11 07:59:13;;;;;;;16.92;9.35;;;13.80;99.90;;;;;;5053209;28;20113;-76
2022/12/11 08:01:40;;;;;;;15.10;8.30;;;13.80;99.90;;;;;;5037690;28;20026;-75
2022/12/11 08:04:09;;;;;;;14.38;8.52;;;13.90;99.90;;;;;;5037976;28;20037;-75
2022/12/11 08:06:37;;;;;;;20.27;9.40;;;13.80;99.90;;;;;;5033534;28;20490;-75
2022/12/11 08:09:06;;;;;;;18.90;8.98;;;13.90;99.90;;;;;;5057395;28;20032;-74
2022/12/11 08:11:32;;;;;;;20.65;9.35;;;13.90;99.90;;;;;;5058076;28;20120;-76
2022/12/11 08:13:58;;;;;;;21.13;9.13;;;13.90;99.90;;;;;;5041675;28;20116;-82
2022/12/11 08:16:25;;;;;;;15.95;8.98;;;13.80;99.90;;;;;;5054517;28;20436;-83
2022/12/11 08:18:51;;;;;;;21.10;9.32;;;13.80;99.90;;;;;;5021414;28;20443;-82
2022/12/11 08:21:23;;;;;;;15.40;8.35;;;13.90;99.90;;;;;;5056363;28;20032;-80
2022/12/11 08:23:50;;;;;;;16.38;9.25;;;13.80;99.90;;;;;;5047174;28;20064;-80
2022/12/11 08:26:23;;;;;;;15.30;8.68;;;13.80;99.90;;;;;;5040076;28;20037;-81
2022/12/11 08:28:49;;;;;;;15.98;9.02;;;13.80;99.90;;;;;;5051306;28;20056;-79
2022/12/11 08:31:16;;;;;;;17.17;8.18;;;13.80;99.90;;;;;;5051545;28;20057;-78
2022/12/11 08:33:43;;;;;;;17.63;8.80;;;13.80;99.90;;;;;;5037543;28;20033;-79
2022/12/11 08:36:14;;;;;;;16.90;8.80;;;13.80;99.90;;;;;;5036467;28;20095;-79
2022/12/11 08:38:41;;;;;;;15.80;8.60;;;13.80;99.90;;;;;;5052607;28;20033;-79
2022/12/11 08:41:11;;;;;;;18.60;8.20;;;13.80;99.90;;;;;;5042736;28;20025;-79
2022/12/11 08:43:37;;;;;;;17.38;8.30;;;13.80;99.90;;;;;;5056541;28;20051;-79
2022/12/11 08:46:04;;;;;;;14.48;7.40;;;13.80;99.90;;;;;;5057151;28;20041;-78
2022/12/11 08:48:30;;;;;;;16.55;9.10;;;13.80;99.90;;;;;;5023141;28;20104;-79
2022/12/11 08:51:00;;;;;;;14.30;8.60;;;13.70;99.90;;;;;;5039613;28;20471;-79
2022/12/11 08:53:28;;;;;;;16.98;8.38;;;13.80;99.90;;;;;;5068859;28;20135;-79
2022/12/11 08:55:59;;;;;;;18.55;9.23;;;13.70;99.90;;;;;;5036188;28;20037;-82
2022/12/11 08:58:25;;;;;;;16.33;8.80;;;13.70;99.90;;;;;;5036331;28;20025;-79
2022/12/11 09:00:51;;;;;;;16.27;8.25;;;13.70;99.90;;;;;;5037327;28;20038;-80
2022/12/11 09:03:18;;;;;;;18.65;8.55;;;13.70;99.90;;;;;;5019501;28;20183;-79
2022/12/11 09:05:44;;;;;;;18.27;8.32;;;13.70;99.90;;;;;;5019722;28;20364;-79
2022/12/11 09:08:10;;;;;;;18.13;9.10;;;13.80;99.90;;;;;;5068522;28;20025;-79
2022/12/11 09:10:36;;;;;;;15.38;9.07;;;13.70;99.90;;;;;;5019769;28;20057;-78
2022/12/11 09:13:02;;;;;;;16.20;9.23;;;13.70;99.90;;;;;;5035823;28;20554;-79
2022/12/11 09:15:27;;;;;;;21.13;8.90;;;13.70;99.90;;;;;;5019961;28;20057;-79
2022/12/11 09:17:53;;;;;;;17.92;9.60;;;13.70;99.90;;;;;;5036628;28;20033;-79
2022/12/11 09:20:19;;;;;;;14.00;8.88;;;13.70;99.90;;;;;;5052290;28;20049;-79
2022/12/11 09:22:45;;;;;;;16.77;9.00;;;13.70;99.90;;;;;;5036319;28;20452;-79
2022/12/11 09:25:11;;;;;;;15.77;8.75;;;13.70;99.90;;;;;;5036515;28;20030;-79
2022/12/11 09:27:37;;;;;;;18.88;9.80;;;13.70;99.90;;;;;;5036350;28;20057;-79
2022/12/11 09:30:04;;;;;;;17.77;9.82;;;13.70;99.90;;;;;;5035859;28;20041;-79
2022/12/11 09:32:30;;;;;;;16.77;9.30;;;13.70;99.90;;;;;;5036338;28;20029;-79
2022/12/11 09:34:56;;;;;;;18.67;9.50;;;13.70;99.90;;;;;;5036413;28;20494;-79
2022/12/11 09:37:21;;;;;;;18.80;9.05;;;13.70;99.90;;;;;;5051906;28;20025;-79
2022/12/11 09:39:47;;;;;;;14.98;9.07;;;13.70;99.90;;;;;;5018372;28;20423;-79
2022/12/11 09:42:26;;;;;;;16.08;9.50;;;13.70;99.90;;;;;;5035810;28;20029;-79
2022/12/11 09:44:59;;;;;;;15.55;8.95;;;13.70;99.90;;;;;;5034918;28;20029;-79
2022/12/11 09:47:42;;;;;;;15.10;9.18;;;13.60;99.90;;;;;;5018673;28;20028;-79
2022/12/11 09:50:08;;;;;;;16.33;9.48;;;13.70;99.90;;;;;;5036139;28;20029;-78
2022/12/11 09:52:49;;;;;;;15.75;8.65;;;13.70;99.90;;;;;;5052024;28;20379;-79
2022/12/11 09:55:19;;;;;;;16.25;8.98;;;13.70;99.90;;;;;;4998465;28;20413;-79
2022/12/11 09:58:21;;;;;;;14.55;9.07;;;13.60;99.90;;;;;;5014618;28;20057;-79
2022/12/11 10:01:00;;;;;;;13.20;8.65;;;13.70;99.90;;;;;;4999335;28;20052;-80
2022/12/11 10:03:38;;;;;;;13.10;7.93;;;13.70;99.90;;;;;;5015401;28;20034;-79
2022/12/11 10:06:14;;;;;;;14.75;8.43;;;13.60;99.90;;;;;;5015149;28;20029;-79
2022/12/11 10:08:46;;;;;;;12.27;7.95;;;13.60;99.90;;;;;;5015780;28;20034;-79
2022/12/11 10:11:50;;;;;;;13.48;8.40;;;13.60;99.90;;;;;;5014908;28;20467;-79
2022/12/11 10:14:23;;;;;;;15.07;8.10;;;13.60;99.90;;;;;;5031106;28;20337;-79
2022/12/11 10:17:13;;;;;;;13.57;7.68;;;13.70;99.90;;;;;;5014567;28;20046;-79
2022/12/11 10:19:40;;;;;;;14.48;8.23;;;13.60;99.90;;;;;;5015922;28;20036;-79
2022/12/11 10:22:23;;;;;;;12.73;7.97;;;13.60;99.90;;;;;;4998633;28;20056;-79
2022/12/11 10:25:04;;;;;;;17.17;8.60;;;13.60;99.90;;;;;;5014474;28;20160;-79
2022/12/11 10:27:37;;;;;;;14.80;8.18;;;13.60;99.90;;;;;;5015646;28;20034;-79
2022/12/11 10:30:13;;;;;;;13.50;8.10;;;13.60;99.90;;;;;;4997974;28;20057;-82
2022/12/11 10:32:58;;;;;;;13.50;7.78;;;13.60;99.90;;;;;;5014766;28;20102;-79
2022/12/11 10:35:35;;;;;;;13.88;7.65;;;13.60;99.90;;;;;;5015602;28;20153;-79
2022/12/11 10:38:10;;;;;;;12.90;7.90;;;13.60;99.90;;;;;;5015220;28;20041;-79
2022/12/11 10:40:40;;;;;;;12.93;7.88;;;13.60;99.90;;;;;;5015835;28;20061;-79
2022/12/11 10:43:06;;;;;;;13.48;8.13;;;13.60;99.90;;;;;;5013765;28;20084;-79
2022/12/11 10:45:32;;;;;;;12.57;7.80;;;13.60;99.90;;;;;;5047870;28;20088;-79
2022/12/11 10:48:03;;;;;;;12.18;7.72;;;13.60;99.90;;;;;;5015458;28;20168;-79
2022/12/11 10:50:29;;;;;;;12.02;7.15;;;13.60;99.90;;;;;;5014868;28;20444;-79
2022/12/11 10:52:55;;;;;;;11.45;7.55;;;13.60;99.90;;;;;;5031168;28;20034;-79
2022/12/11 10:55:44;;;;;;;12.18;7.35;;;13.60;99.90;;;;;;5033990;28;20424;-79
2022/12/11 10:58:27;;;;;;;11.75;7.50;;;13.60;99.90;;;;;;5033230;28;20048;-79
2022/12/11 11:01:07;;;;;;;13.00;8.10;;;13.60;99.90;;;;;;5034448;28;20038;-79
2022/12/11 11:03:35;;;;;;;10.93;6.85;;;13.60;99.90;;;;;;5067133;28;20021;-79
2022/12/11 11:06:16;;;;;;;11.68;7.43;;;13.60;99.90;;;;;;5035302;28;20033;-79
2022/12/11 11:08:45;;;;;;;13.57;7.50;;;13.60;99.90;;;;;;5033744;28;20076;-79
2022/12/11 11:11:28;;;;;;;10.98;7.65;;;13.60;99.90;;;;;;5034989;28;20025;-79
2022/12/11 11:14:14;;;;;;;11.73;7.10;;;13.60;99.90;;;;;;5033266;28;20068;-79
2022/12/11 11:16:44;;;;;;;10.40;7.18;;;13.50;99.90;;;;;;5035086;28;20036;-79
2022/12/11 11:19:31;;;;;;;11.23;7.30;;;13.60;99.90;;;;;;5034879;28;20036;-79
2022/12/11 11:22:00;;;;;;;11.30;7.43;;;13.60;99.90;;;;;;5034429;28;20034;-79
2022/12/11 11:24:29;;;;;;;10.80;7.30;;;13.50;99.90;;;;;;5034338;28;20060;-79
2022/12/11 11:26:56;;;;;;;12.73;7.75;;;13.60;99.90;;;;;;5033786;28;20040;-78
2022/12/11 11:29:32;;;;;;;11.93;7.40;;;13.50;99.90;;;;;;5020457;28;20037;-79
2022/12/11 11:32:19;;;;;;;;;;;13.50;99.90;;;;;;5039165;28;20108;-79
2022/12/11 11:34:45;;;;;;;12.07;7.20;;;13.50;99.90;;;;;;5021651;28;19909;-79
2022/12/11 11:37:23;;;;;;;12.20;7.63;;;13.50;99.90;;;;;;5037516;28;20644;-79
2022/12/11 11:39:53;;;;;;;12.57;7.80;;;13.50;99.90;;;;;;5037331;28;20446;-78
2022/12/11 11:42:39;;;;;;;10.93;7.38;;;13.50;99.90;;;;;;5070387;28;20044;-79
2022/12/11 11:45:30;;;;;;;11.77;7.67;;;13.50;99.90;;;;;;5038094;28;20039;-78
2022/12/11 11:48:09;;;;;;;11.05;7.97;;;13.50;99.90;;;;;;5037287;28;20091;-79
2022/12/11 11:50:36;;;;;;;10.93;7.28;;;13.50;99.90;;;;;;5037869;28;20431;-79
2022/12/11 11:53:16;;;;;;;10.93;7.60;;;13.50;99.90;;;;;;5036925;28;20064;-78
2022/12/11 11:55:54;;;;;;;12.02;7.70;;;13.50;99.90;;;;;;5037505;28;20041;-79
2022/12/11 11:58:42;;;;;;;11.30;7.70;;;13.50;99.90;;;;;;5036241;28;20025;-79
2022/12/11 12:01:16;;;;;;;12.40;8.13;;;13.50;99.90;;;;;;5037536;28;20067;-78
2022/12/11 12:03:43;;;;;;;12.98;7.20;;;13.50;99.90;;;;;;5038289;28;20129;-79
2022/12/11 12:06:15;;;;;;;10.82;7.07;;;13.50;99.90;;;;;;5054162;28;20132;-79
2022/12/11 12:08:45;;;;;;;10.65;7.20;;;13.50;99.90;;;;;;5053379;28;20041;-78
2022/12/11 12:11:44;;;;;;;11.77;7.53;;;13.50;99.90;;;;;;5070521;28;20088;-79
2022/12/11 12:14:22;;;;;;;9.85;6.57;;;13.50;99.90;;;;;;5029056;28;20052;-79
2022/12/11 12:17:21;;;;;;;11.45;7.10;;;13.50;99.90;;;;;;5037988;28;20040;-78
2022/12/11 12:20:28;;;;;;;11.77;7.28;;;13.50;99.90;;;;;;5037048;28;20033;-79
2022/12/11 12:23:22;;;;;;;10.77;7.57;;;13.50;99.90;;;;;;5036053;28;20091;-78
2022/12/11 12:26:12;;;;;;;11.07;7.07;;;13.50;99.90;;;;;;5053653;28;20420;-78
2022/12/11 12:28:58;;;;;;;10.80;7.20;;;13.50;99.90;;;;;;5036907;28;20041;-78
2022/12/11 12:31:54;;;;;;;11.63;7.40;;;13.50;99.90;;;;;;5036475;28;20064;-78
2022/12/11 12:34:38;;;;;;;10.98;7.35;;;13.50;99.90;;;;;;5069675;28;20309;-78
2022/12/11 12:37:19;;;;;;;9.95;6.88;;;13.50;99.90;;;;;;5037653;28;20037;-79
2022/12/11 12:40:03;;;;;;;9.77;6.78;;;13.50;99.90;;;;;;5036784;28;20037;-78
2022/12/11 12:43:03;;;;;;;9.88;6.97;;;13.50;99.90;;;;;;5037002;28;20036;-79
2022/12/11 12:45:57;;;;;;;10.80;6.93;;;13.50;99.90;;;;;;5036303;28;20037;-79
2022/12/11 12:48:24;;;;;;;8.77;6.38;;;13.50;99.90;;;;;;5069388;28;20025;-78
2022/12/11 12:50:50;;;;;;;8.55;6.10;;;13.50;99.90;;;;;;5037439;28;20032;-79
2022/12/11 12:53:19;;;;;;;10.55;6.15;;;13.50;99.90;;;;;;5036679;28;20037;-79
2022/12/11 12:55:47;;;;;;;9.88;6.95;;;13.50;99.90;;;;;;5057330;28;20112;-79
2022/12/11 12:58:45;;;;;;;8.38;6.00;;;13.50;99.90;;;;;;5056204;28;20029;-78
2022/12/11 13:01:11;;;;;;;8.32;6.35;;;13.50;99.90;;;;;;5017443;28;20040;-78
2022/12/11 13:03:52;;;;;;;9.05;6.28;;;13.50;99.90;;;;;;5039313;28;20033;-79
2022/12/11 13:06:38;;;;;;;9.48;6.38;;;13.50;99.90;;;;;;5039466;28;20459;-80
2022/12/11 13:09:18;;;;;;;9.98;6.43;;;13.50;99.90;;;;;;5038867;28;20317;-79
2022/12/11 13:11:46;;;;;;;10.77;6.38;;;13.50;99.90;;;;;;5056535;28;20028;-78
2022/12/11 13:14:15;;;;;;;8.20;6.00;;;13.50;99.90;;;;;;5072087;28;20021;-79
2022/12/11 13:16:43;;;;;;;9.00;6.57;;;13.50;99.90;;;;;;5022388;28;20460;-78
2022/12/11 13:19:25;;;;;;;8.88;5.97;;;13.50;99.90;;;;;;5055801;28;20075;-78
2022/12/11 13:22:00;;;;;;;8.75;6.40;;;13.50;99.90;;;;;;5039206;28;20040;-79
2022/12/11 13:24:30;;;;;;;9.23;6.25;;;13.50;99.90;;;;;;5038397;28;20056;-79